Bartlesville, OK

7:39 PM CST on February 09, 2016 (GMT -0600)
Bartlesville Municipal | | Change Station
CLOSE
Current Station
Airport
Location: Bartlesville,
Elevation: 712 ft
Nearby Weather Stations

Elev 712 ft 36.77 °N, 96.01 °W | Updated 46 minutes ago

Clear
Clear
35 °F
Feels Like 29 °F
N
7
Wind Variable Wind from Variable

Today
High -- | Low -- °F
--% Chance of Precip.
Yesterday
High -- | Low -- °F
Precip. -- in
Pressure 30.32 in
Visibility 10.0 miles
Clouds Clear
Windchill 29 °F
Dew Point 14 °F
Humidity 42%
Rainfall 0.00 in
Snow Depth Not available.
7:19 AM 5:57 PM
Waxing Crescent, 3% visible
METAR KBVO 100053Z AUTO VRB06KT 10SM CLR 02/M10 A3031 RMK AO2 SLP268 T00171100 TSNO $
Pressure 30.32 in
Visibility 10.0 miles
Clouds Clear
Windchill 29 °F
Dew Point 14 °F
Humidity 42%
Rainfall 0.00 in
Snow Depth Not available.
7:19 AM 5:57 PM
Waxing Crescent, 3% visible
METAR KBVO 100053Z AUTO VRB06KT 10SM CLR 02/M10 A3031 RMK AO2 SLP268 T00171100 TSNO $

10-Day Weather Forecast

Almanac

Astronomy

Feb. 09, 2016 Rise Set
Actual Time
Civil Twilight
Nautical Twilight
Astronomical Twilight
Moon
Length of Visible Light
Length of Day
Tomorrow will be .
, % of the Moon is Illuminated

Today's Extremes

State Highs State Lows

Community

WunderPhotos

Upload Photos

1,891,760 photos uploaded!

WunderBlog® & News

Nearby

Air Quality

  Air Quality AQ Index Pollutant
Not available.

Snow Depth

Station Depth Elevation

Earthquake Activity

City Distance Mag. Time & Date
Minimum magnitude displayed is 2.5.

Coastal Water Temperatures

Place Temperature

Stations

Nearby Weather Stations

Station Location Temp. Windchill Dew Point Humidity Wind Precip. Elev Updated Type
                   

Watches & Warnings

There are currently no watches in effect.